sensor_id;sensor_type;location;lat;lon;timestamp;P1;durP1;ratioP1;P2;durP2;ratioP2
28772;SDS011;15925;51.222;5.678;2022-10-31T00:01:27;9.00;;;3.65;;
28772;SDS011;15925;51.222;5.678;2022-10-31T00:04:00;4.28;;;2.42;;
28772;SDS011;15925;51.222;5.678;2022-10-31T00:06:27;7.50;;;3.00;;
28772;SDS011;15925;51.222;5.678;2022-10-31T00:08:54;5.63;;;2.70;;
28772;SDS011;15925;51.222;5.678;2022-10-31T00:11:21;11.25;;;3.67;;
28772;SDS011;15925;51.222;5.678;2022-10-31T00:16:17;6.75;;;3.03;;
28772;SDS011;15925;51.222;5.678;2022-10-31T00:18:47;6.95;;;3.38;;
28772;SDS011;15925;51.222;5.678;2022-10-31T00:21:14;6.68;;;3.80;;
28772;SDS011;15925;51.222;5.678;2022-10-31T00:23:40;3.97;;;2.17;;
28772;SDS011;15925;51.222;5.678;2022-10-31T00:26:05;7.87;;;3.27;;
28772;SDS011;15925;51.222;5.678;2022-10-31T00:28:32;6.35;;;3.03;;
28772;SDS011;15925;51.222;5.678;2022-10-31T00:31:01;8.40;;;3.28;;
28772;SDS011;15925;51.222;5.678;2022-10-31T00:33:29;9.30;;;3.05;;
28772;SDS011;15925;51.222;5.678;2022-10-31T00:35:55;10.73;;;3.38;;
28772;SDS011;15925;51.222;5.678;2022-10-31T00:38:21;7.63;;;2.72;;
28772;SDS011;15925;51.222;5.678;2022-10-31T00:40:47;8.35;;;3.00;;
28772;SDS011;15925;51.222;5.678;2022-10-31T00:43:13;11.13;;;4.43;;
28772;SDS011;15925;51.222;5.678;2022-10-31T00:45:39;8.87;;;5.20;;
28772;SDS011;15925;51.222;5.678;2022-10-31T00:48:06;14.95;;;4.90;;
28772;SDS011;15925;51.222;5.678;2022-10-31T00:50:32;12.45;;;5.65;;
28772;SDS011;15925;51.222;5.678;2022-10-31T00:52:58;11.38;;;5.22;;
28772;SDS011;15925;51.222;5.678;2022-10-31T00:55:24;9.68;;;4.30;;
28772;SDS011;15925;51.222;5.678;2022-10-31T00:57:50;9.50;;;5.10;;
28772;SDS011;15925;51.222;5.678;2022-10-31T01:00:16;12.40;;;4.47;;
28772;SDS011;15925;51.222;5.678;2022-10-31T01:02:42;11.30;;;4.38;;
28772;SDS011;15925;51.222;5.678;2022-10-31T01:05:08;10.23;;;5.27;;
28772;SDS011;15925;51.222;5.678;2022-10-31T01:07:36;7.90;;;3.97;;
28772;SDS011;15925;51.222;5.678;2022-10-31T01:10:03;11.05;;;4.57;;
28772;SDS011;15925;51.222;5.678;2022-10-31T01:12:35;7.30;;;3.53;;
28772;SDS011;15925;51.222;5.678;2022-10-31T01:15:01;11.70;;;5.32;;
28772;SDS011;15925;51.222;5.678;2022-10-31T01:17:28;13.27;;;4.15;;
28772;SDS011;15925;51.222;5.678;2022-10-31T01:19:54;7.80;;;3.78;;
28772;SDS011;15925;51.222;5.678;2022-10-31T01:22:20;9.73;;;3.70;;
28772;SDS011;15925;51.222;5.678;2022-10-31T01:24:45;10.83;;;5.17;;
28772;SDS011;15925;51.222;5.678;2022-10-31T01:27:11;7.00;;;3.57;;
28772;SDS011;15925;51.222;5.678;2022-10-31T01:29:37;8.38;;;4.60;;
28772;SDS011;15925;51.222;5.678;2022-10-31T01:32:03;7.30;;;4.03;;
28772;SDS011;15925;51.222;5.678;2022-10-31T01:34:29;14.68;;;4.03;;
28772;SDS011;15925;51.222;5.678;2022-10-31T01:36:55;17.23;;;4.27;;
28772;SDS011;15925;51.222;5.678;2022-10-31T01:39:21;7.63;;;3.47;;
28772;SDS011;15925;51.222;5.678;2022-10-31T01:41:48;12.25;;;4.30;;
28772;SDS011;15925;51.222;5.678;2022-10-31T01:47:03;9.25;;;4.15;;
28772;SDS011;15925;51.222;5.678;2022-10-31T01:52:06;14.50;;;3.33;;
28772;SDS011;15925;51.222;5.678;2022-10-31T01:57:24;12.48;;;4.22;;
28772;SDS011;15925;51.222;5.678;2022-10-31T01:59:51;3.88;;;2.47;;
28772;SDS011;15925;51.222;5.678;2022-10-31T02:02:21;9.07;;;3.40;;
28772;SDS011;15925;51.222;5.678;2022-10-31T02:04:49;10.35;;;4.60;;
28772;SDS011;15925;51.222;5.678;2022-10-31T02:07:18;13.68;;;4.78;;
28772;SDS011;15925;51.222;5.678;2022-10-31T02:09:49;7.88;;;4.10;;
28772;SDS011;15925;51.222;5.678;2022-10-31T02:12:16;11.88;;;4.43;;
28772;SDS011;15925;51.222;5.678;2022-10-31T02:14:43;7.32;;;3.00;;
28772;SDS011;15925;51.222;5.678;2022-10-31T02:17:09;9.47;;;4.07;;
28772;SDS011;15925;51.222;5.678;2022-10-31T02:22:42;17.02;;;2.88;;
28772;SDS011;15925;51.222;5.678;2022-10-31T02:33:47;17.20;;;5.40;;
28772;SDS011;15925;51.222;5.678;2022-10-31T02:41:35;11.93;;;4.43;;
28772;SDS011;15925;51.222;5.678;2022-10-31T02:44:21;16.85;;;5.40;;
28772;SDS011;15925;51.222;5.678;2022-10-31T02:46:56;33.30;;;6.65;;
28772;SDS011;15925;51.222;5.678;2022-10-31T02:52:18;20.73;;;4.30;;
28772;SDS011;15925;51.222;5.678;2022-10-31T02:54:44;17.23;;;4.28;;
28772;SDS011;15925;51.222;5.678;2022-10-31T02:57:11;29.00;;;4.95;;
28772;SDS011;15925;51.222;5.678;2022-10-31T02:59:40;13.48;;;4.97;;
28772;SDS011;15925;51.222;5.678;2022-10-31T03:02:22;13.00;;;4.38;;
28772;SDS011;15925;51.222;5.678;2022-10-31T03:05:16;5.38;;;3.05;;
28772;SDS011;15925;51.222;5.678;2022-10-31T03:07:53;12.93;;;3.97;;
28772;SDS011;15925;51.222;5.678;2022-10-31T03:13:13;3.92;;;2.83;;
28772;SDS011;15925;51.222;5.678;2022-10-31T03:15:53;6.68;;;3.10;;
28772;SDS011;15925;51.222;5.678;2022-10-31T03:18:32;4.70;;;3.33;;
28772;SDS011;15925;51.222;5.678;2022-10-31T03:21:25;9.98;;;3.85;;
28772;SDS011;15925;51.222;5.678;2022-10-31T03:23:54;9.35;;;3.25;;
28772;SDS011;15925;51.222;5.678;2022-10-31T03:26:22;7.43;;;3.80;;
28772;SDS011;15925;51.222;5.678;2022-10-31T03:28:55;5.65;;;3.08;;
28772;SDS011;15925;51.222;5.678;2022-10-31T03:31:27;7.55;;;3.50;;
28772;SDS011;15925;51.222;5.678;2022-10-31T03:33:58;6.40;;;4.07;;
28772;SDS011;15925;51.222;5.678;2022-10-31T03:36:29;10.82;;;5.00;;
28772;SDS011;15925;51.222;5.678;2022-10-31T03:38:59;9.40;;;4.05;;
28772;SDS011;15925;51.222;5.678;2022-10-31T03:41:31;8.40;;;4.00;;
28772;SDS011;15925;51.222;5.678;2022-10-31T03:44:06;8.88;;;3.60;;
28772;SDS011;15925;51.222;5.678;2022-10-31T03:46:38;9.70;;;4.18;;
28772;SDS011;15925;51.222;5.678;2022-10-31T03:49:04;13.43;;;4.55;;
28772;SDS011;15925;51.222;5.678;2022-10-31T03:52:19;11.30;;;3.45;;
28772;SDS011;15925;51.222;5.678;2022-10-31T03:57:51;27.77;;;4.28;;
28772;SDS011;15925;51.222;5.678;2022-10-31T04:00:13;48.15;;;5.57;;
28772;SDS011;15925;51.222;5.678;2022-10-31T04:02:49;51.60;;;6.28;;
28772;SDS011;15925;51.222;5.678;2022-10-31T04:05:28;8.15;;;4.60;;
28772;SDS011;15925;51.222;5.678;2022-10-31T04:07:59;12.02;;;5.07;;
28772;SDS011;15925;51.222;5.678;2022-10-31T04:10:30;8.38;;;4.05;;
28772;SDS011;15925;51.222;5.678;2022-10-31T04:13:00;12.80;;;5.05;;
28772;SDS011;15925;51.222;5.678;2022-10-31T04:15:37;10.68;;;4.75;;
28772;SDS011;15925;51.222;5.678;2022-10-31T04:18:05;23.15;;;4.50;;
28772;SDS011;15925;51.222;5.678;2022-10-31T04:25:24;20.05;;;5.03;;
28772;SDS011;15925;51.222;5.678;2022-10-31T04:27:51;90.22;;;7.68;;
28772;SDS011;15925;51.222;5.678;2022-10-31T04:30:17;29.07;;;6.10;;
28772;SDS011;15925;51.222;5.678;2022-10-31T04:32:42;41.27;;;7.63;;
28772;SDS011;15925;51.222;5.678;2022-10-31T04:35:08;24.33;;;7.05;;
28772;SDS011;15925;51.222;5.678;2022-10-31T04:37:34;24.00;;;6.40;;
28772;SDS011;15925;51.222;5.678;2022-10-31T04:40:02;45.35;;;5.85;;
28772;SDS011;15925;51.222;5.678;2022-10-31T04:42:37;66.25;;;7.63;;
28772;SDS011;15925;51.222;5.678;2022-10-31T04:45:05;41.10;;;5.18;;
28772;SDS011;15925;51.222;5.678;2022-10-31T04:47:33;21.05;;;6.68;;
28772;SDS011;15925;51.222;5.678;2022-10-31T04:50:00;17.48;;;6.95;;
28772;SDS011;15925;51.222;5.678;2022-10-31T04:52:28;26.58;;;5.90;;
28772;SDS011;15925;51.222;5.678;2022-10-31T04:54:54;14.50;;;6.65;;
28772;SDS011;15925;51.222;5.678;2022-10-31T04:57:49;19.30;;;6.25;;
28772;SDS011;15925;51.222;5.678;2022-10-31T05:00:18;22.63;;;7.43;;
28772;SDS011;15925;51.222;5.678;2022-10-31T05:02:48;15.80;;;5.97;;
28772;SDS011;15925;51.222;5.678;2022-10-31T05:05:19;54.60;;;7.13;;
28772;SDS011;15925;51.222;5.678;2022-10-31T05:07:47;40.08;;;6.32;;
28772;SDS011;15925;51.222;5.678;2022-10-31T05:10:17;133.23;;;7.63;;
28772;SDS011;15925;51.222;5.678;2022-10-31T05:12:47;47.25;;;5.07;;
28772;SDS011;15925;51.222;5.678;2022-10-31T05:15:33;123.22;;;8.77;;
28772;SDS011;15925;51.222;5.678;2022-10-31T05:18:19;88.65;;;7.05;;
28772;SDS011;15925;51.222;5.678;2022-10-31T05:21:08;44.70;;;8.05;;
28772;SDS011;15925;51.222;5.678;2022-10-31T05:23:36;65.53;;;9.23;;
28772;SDS011;15925;51.222;5.678;2022-10-31T05:26:05;28.05;;;5.97;;
28772;SDS011;15925;51.222;5.678;2022-10-31T05:30:58;44.90;;;6.00;;
28772;SDS011;15925;51.222;5.678;2022-10-31T05:33:24;13.90;;;4.07;;
28772;SDS011;15925;51.222;5.678;2022-10-31T05:36:09;14.60;;;3.80;;
28772;SDS011;15925;51.222;5.678;2022-10-31T05:38:55;16.58;;;4.00;;
28772;SDS011;15925;51.222;5.678;2022-10-31T05:41:27;11.90;;;4.93;;
28772;SDS011;15925;51.222;5.678;2022-10-31T05:44:02;7.05;;;3.35;;
28772;SDS011;15925;51.222;5.678;2022-10-31T05:46:31;6.07;;;3.40;;
28772;SDS011;15925;51.222;5.678;2022-10-31T05:49:35;34.00;;;5.32;;
28772;SDS011;15925;51.222;5.678;2022-10-31T05:52:21;15.50;;;4.50;;
28772;SDS011;15925;51.222;5.678;2022-10-31T05:54:54;58.72;;;7.70;;
28772;SDS011;15925;51.222;5.678;2022-10-31T05:57:20;21.30;;;5.27;;
28772;SDS011;15925;51.222;5.678;2022-10-31T05:59:46;10.93;;;5.07;;
28772;SDS011;15925;51.222;5.678;2022-10-31T06:04:57;11.07;;;5.43;;
28772;SDS011;15925;51.222;5.678;2022-10-31T06:07:24;36.60;;;7.40;;
28772;SDS011;15925;51.222;5.678;2022-10-31T06:09:51;31.85;;;5.63;;
28772;SDS011;15925;51.222;5.678;2022-10-31T06:12:20;93.05;;;7.88;;
28772;SDS011;15925;51.222;5.678;2022-10-31T06:15:05;23.08;;;6.78;;
28772;SDS011;15925;51.222;5.678;2022-10-31T06:17:33;33.60;;;6.55;;
28772;SDS011;15925;51.222;5.678;2022-10-31T06:20:19;64.50;;;7.53;;
28772;SDS011;15925;51.222;5.678;2022-10-31T06:22:54;16.40;;;5.30;;
28772;SDS011;15925;51.222;5.678;2022-10-31T06:25:20;46.90;;;7.30;;
28772;SDS011;15925;51.222;5.678;2022-10-31T06:27:48;21.33;;;5.13;;
28772;SDS011;15925;51.222;5.678;2022-10-31T06:30:14;37.28;;;5.65;;
28772;SDS011;15925;51.222;5.678;2022-10-31T06:32:41;42.40;;;5.13;;
28772;SDS011;15925;51.222;5.678;2022-10-31T06:35:08;24.05;;;6.03;;
28772;SDS011;15925;51.222;5.678;2022-10-31T06:37:35;45.63;;;6.63;;
28772;SDS011;15925;51.222;5.678;2022-10-31T06:40:13;46.05;;;6.43;;
28772;SDS011;15925;51.222;5.678;2022-10-31T06:42:59;29.83;;;6.85;;
28772;SDS011;15925;51.222;5.678;2022-10-31T06:45:26;29.27;;;4.45;;
28772;SDS011;15925;51.222;5.678;2022-10-31T06:48:18;19.55;;;4.95;;
28772;SDS011;15925;51.222;5.678;2022-10-31T06:51:04;15.20;;;5.50;;
28772;SDS011;15925;51.222;5.678;2022-10-31T06:55:57;18.98;;;4.55;;
28772;SDS011;15925;51.222;5.678;2022-10-31T06:58:23;9.45;;;4.93;;
28772;SDS011;15925;51.222;5.678;2022-10-31T07:00:50;30.60;;;4.13;;
28772;SDS011;15925;51.222;5.678;2022-10-31T07:03:17;21.20;;;4.47;;
28772;SDS011;15925;51.222;5.678;2022-10-31T07:05:44;24.15;;;5.13;;
28772;SDS011;15925;51.222;5.678;2022-10-31T07:08:11;20.00;;;3.40;;
28772;SDS011;15925;51.222;5.678;2022-10-31T07:10:39;9.15;;;4.68;;
28772;SDS011;15925;51.222;5.678;2022-10-31T07:13:10;8.60;;;4.18;;
28772;SDS011;15925;51.222;5.678;2022-10-31T07:15:38;6.15;;;3.90;;
28772;SDS011;15925;51.222;5.678;2022-10-31T07:18:07;5.90;;;3.53;;
28772;SDS011;15925;51.222;5.678;2022-10-31T07:20:34;12.63;;;4.40;;
28772;SDS011;15925;51.222;5.678;2022-10-31T07:23:01;7.82;;;4.13;;
28772;SDS011;15925;51.222;5.678;2022-10-31T07:25:30;10.80;;;4.25;;
28772;SDS011;15925;51.222;5.678;2022-10-31T07:28:04;10.18;;;3.88;;
28772;SDS011;15925;51.222;5.678;2022-10-31T07:30:30;6.93;;;2.70;;
28772;SDS011;15925;51.222;5.678;2022-10-31T07:32:56;8.67;;;3.87;;
28772;SDS011;15925;51.222;5.678;2022-10-31T07:35:28;5.95;;;3.17;;
28772;SDS011;15925;51.222;5.678;2022-10-31T07:37:58;5.50;;;3.38;;
28772;SDS011;15925;51.222;5.678;2022-10-31T07:40:32;8.23;;;4.10;;
28772;SDS011;15925;51.222;5.678;2022-10-31T07:42:58;17.30;;;3.80;;
28772;SDS011;15925;51.222;5.678;2022-10-31T07:45:43;56.00;;;4.38;;
28772;SDS011;15925;51.222;5.678;2022-10-31T07:48:31;6.53;;;4.50;;
28772;SDS011;15925;51.222;5.678;2022-10-31T07:51:15;8.57;;;4.28;;
28772;SDS011;15925;51.222;5.678;2022-10-31T07:54:00;14.88;;;4.75;;
28772;SDS011;15925;51.222;5.678;2022-10-31T07:56:29;6.43;;;4.05;;
28772;SDS011;15925;51.222;5.678;2022-10-31T07:58:55;6.25;;;3.25;;
28772;SDS011;15925;51.222;5.678;2022-10-31T08:01:21;7.60;;;4.53;;
28772;SDS011;15925;51.222;5.678;2022-10-31T08:04:04;7.97;;;4.57;;
28772;SDS011;15925;51.222;5.678;2022-10-31T08:06:47;11.30;;;5.28;;
28772;SDS011;15925;51.222;5.678;2022-10-31T08:09:28;10.77;;;5.05;;
28772;SDS011;15925;51.222;5.678;2022-10-31T08:11:57;10.18;;;4.95;;
28772;SDS011;15925;51.222;5.678;2022-10-31T08:14:23;5.53;;;3.50;;
28772;SDS011;15925;51.222;5.678;2022-10-31T08:16:51;8.20;;;4.43;;
28772;SDS011;15925;51.222;5.678;2022-10-31T08:19:18;13.50;;;6.07;;
28772;SDS011;15925;51.222;5.678;2022-10-31T08:21:44;15.33;;;5.47;;
28772;SDS011;15925;51.222;5.678;2022-10-31T08:24:10;13.32;;;5.18;;
28772;SDS011;15925;51.222;5.678;2022-10-31T08:26:37;29.05;;;6.10;;
28772;SDS011;15925;51.222;5.678;2022-10-31T08:29:06;13.05;;;5.80;;
28772;SDS011;15925;51.222;5.678;2022-10-31T08:31:34;19.63;;;7.45;;
28772;SDS011;15925;51.222;5.678;2022-10-31T08:34:39;13.27;;;6.68;;
28772;SDS011;15925;51.222;5.678;2022-10-31T08:37:23;19.95;;;6.22;;
28772;SDS011;15925;51.222;5.678;2022-10-31T08:39:53;27.95;;;7.28;;
28772;SDS011;15925;51.222;5.678;2022-10-31T08:44:45;12.55;;;6.22;;
28772;SDS011;15925;51.222;5.678;2022-10-31T08:47:12;13.43;;;6.32;;
28772;SDS011;15925;51.222;5.678;2022-10-31T08:49:38;20.60;;;7.57;;
28772;SDS011;15925;51.222;5.678;2022-10-31T08:52:03;15.23;;;6.93;;
28772;SDS011;15925;51.222;5.678;2022-10-31T08:54:34;13.73;;;6.88;;
28772;SDS011;15925;51.222;5.678;2022-10-31T08:57:18;20.80;;;8.55;;
28772;SDS011;15925;51.222;5.678;2022-10-31T08:59:46;27.27;;;7.70;;
28772;SDS011;15925;51.222;5.678;2022-10-31T09:02:28;22.88;;;8.93;;
28772;SDS011;15925;51.222;5.678;2022-10-31T09:04:58;23.70;;;8.65;;
28772;SDS011;15925;51.222;5.678;2022-10-31T09:07:23;29.63;;;9.40;;
28772;SDS011;15925;51.222;5.678;2022-10-31T09:09:49;23.05;;;10.45;;
28772;SDS011;15925;51.222;5.678;2022-10-31T09:12:17;30.65;;;9.88;;
28772;SDS011;15925;51.222;5.678;2022-10-31T09:14:46;25.92;;;10.05;;
28772;SDS011;15925;51.222;5.678;2022-10-31T09:17:26;34.28;;;12.20;;
28772;SDS011;15925;51.222;5.678;2022-10-31T09:20:14;29.88;;;10.98;;
28772;SDS011;15925;51.222;5.678;2022-10-31T09:22:40;29.70;;;9.85;;
28772;SDS011;15925;51.222;5.678;2022-10-31T09:27:33;38.67;;;11.60;;
28772;SDS011;15925;51.222;5.678;2022-10-31T09:29:59;28.40;;;10.68;;
28772;SDS011;15925;51.222;5.678;2022-10-31T09:32:25;40.63;;;11.45;;
28772;SDS011;15925;51.222;5.678;2022-10-31T09:34:51;34.00;;;13.23;;
28772;SDS011;15925;51.222;5.678;2022-10-31T09:37:19;29.98;;;10.75;;
28772;SDS011;15925;51.222;5.678;2022-10-31T09:39:45;49.42;;;12.80;;
28772;SDS011;15925;51.222;5.678;2022-10-31T09:42:35;37.13;;;12.98;;
28772;SDS011;15925;51.222;5.678;2022-10-31T09:51:30;29.90;;;11.63;;
28772;SDS011;15925;51.222;5.678;2022-10-31T09:54:26;47.85;;;11.82;;
28772;SDS011;15925;51.222;5.678;2022-10-31T09:57:07;35.30;;;13.07;;
28772;SDS011;15925;51.222;5.678;2022-10-31T09:59:40;50.63;;;13.27;;
28772;SDS011;15925;51.222;5.678;2022-10-31T10:04:48;49.72;;;12.75;;
28772;SDS011;15925;51.222;5.678;2022-10-31T10:07:22;52.72;;;12.30;;
28772;SDS011;15925;51.222;5.678;2022-10-31T10:10:21;42.65;;;13.27;;
28772;SDS011;15925;51.222;5.678;2022-10-31T10:16:09;31.33;;;12.52;;
28772;SDS011;15925;51.222;5.678;2022-10-31T10:18:52;34.40;;;13.05;;
28772;SDS011;15925;51.222;5.678;2022-10-31T10:24:50;25.90;;;12.63;;
28772;SDS011;15925;51.222;5.678;2022-10-31T10:27:45;35.67;;;12.27;;
28772;SDS011;15925;51.222;5.678;2022-10-31T10:30:49;39.03;;;13.30;;
28772;SDS011;15925;51.222;5.678;2022-10-31T10:33:18;41.92;;;13.60;;
28772;SDS011;15925;51.222;5.678;2022-10-31T10:35:51;35.53;;;13.27;;
28772;SDS011;15925;51.222;5.678;2022-10-31T10:38:24;38.05;;;12.18;;
28772;SDS011;15925;51.222;5.678;2022-10-31T10:41:04;44.00;;;13.48;;
28772;SDS011;15925;51.222;5.678;2022-10-31T10:43:37;32.10;;;13.43;;
28772;SDS011;15925;51.222;5.678;2022-10-31T10:51:57;31.75;;;12.30;;
28772;SDS011;15925;51.222;5.678;2022-10-31T11:00:00;29.80;;;13.13;;
28772;SDS011;15925;51.222;5.678;2022-10-31T11:02:30;36.65;;;12.85;;
28772;SDS011;15925;51.222;5.678;2022-10-31T11:04:58;40.72;;;12.52;;
28772;SDS011;15925;51.222;5.678;2022-10-31T11:07:26;36.25;;;11.50;;
28772;SDS011;15925;51.222;5.678;2022-10-31T11:10:03;37.22;;;12.30;;
28772;SDS011;15925;51.222;5.678;2022-10-31T11:12:31;45.13;;;11.60;;
28772;SDS011;15925;51.222;5.678;2022-10-31T11:15:05;30.10;;;10.80;;
28772;SDS011;15925;51.222;5.678;2022-10-31T11:17:42;27.02;;;11.00;;
28772;SDS011;15925;51.222;5.678;2022-10-31T11:22:38;43.50;;;10.37;;
28772;SDS011;15925;51.222;5.678;2022-10-31T11:25:26;20.58;;;8.80;;
28772;SDS011;15925;51.222;5.678;2022-10-31T11:30:31;24.55;;;9.23;;
28772;SDS011;15925;51.222;5.678;2022-10-31T11:33:13;29.77;;;11.07;;
28772;SDS011;15925;51.222;5.678;2022-10-31T11:35:47;27.17;;;8.82;;
28772;SDS011;15925;51.222;5.678;2022-10-31T11:38:15;33.17;;;9.88;;
28772;SDS011;15925;51.222;5.678;2022-10-31T11:40:54;29.75;;;9.70;;
28772;SDS011;15925;51.222;5.678;2022-10-31T11:43:23;23.05;;;8.63;;
28772;SDS011;15925;51.222;5.678;2022-10-31T11:45:49;25.35;;;9.38;;
28772;SDS011;15925;51.222;5.678;2022-10-31T11:48:20;34.95;;;9.55;;
28772;SDS011;15925;51.222;5.678;2022-10-31T11:50:50;32.05;;;8.88;;
28772;SDS011;15925;51.222;5.678;2022-10-31T11:53:27;27.90;;;9.20;;
28772;SDS011;15925;51.222;5.678;2022-10-31T11:56:03;33.30;;;8.05;;
28772;SDS011;15925;51.222;5.678;2022-10-31T11:58:38;21.35;;;7.30;;
28772;SDS011;15925;51.222;5.678;2022-10-31T12:01:04;33.90;;;9.82;;
28772;SDS011;15925;51.222;5.678;2022-10-31T12:03:40;23.38;;;8.70;;
28772;SDS011;15925;51.222;5.678;2022-10-31T12:06:19;18.67;;;8.25;;
28772;SDS011;15925;51.222;5.678;2022-10-31T12:08:54;20.02;;;7.25;;
28772;SDS011;15925;51.222;5.678;2022-10-31T12:22:30;18.73;;;6.13;;
28772;SDS011;15925;51.222;5.678;2022-10-31T12:25:19;23.98;;;7.65;;
28772;SDS011;15925;51.222;5.678;2022-10-31T12:28:02;24.45;;;6.95;;
28772;SDS011;15925;51.222;5.678;2022-10-31T12:30:34;19.83;;;6.13;;
28772;SDS011;15925;51.222;5.678;2022-10-31T12:35:49;25.37;;;6.20;;
28772;SDS011;15925;51.222;5.678;2022-10-31T12:43:55;26.98;;;6.38;;
28772;SDS011;15925;51.222;5.678;2022-10-31T12:47:22;10.95;;;4.72;;
28772;SDS011;15925;51.222;5.678;2022-10-31T12:55:08;14.52;;;5.28;;
28772;SDS011;15925;51.222;5.678;2022-10-31T12:57:39;15.32;;;5.15;;
28772;SDS011;15925;51.222;5.678;2022-10-31T13:00:16;15.35;;;5.03;;
28772;SDS011;15925;51.222;5.678;2022-10-31T13:07:58;21.23;;;4.97;;
28772;SDS011;15925;51.222;5.678;2022-10-31T13:10:32;21.08;;;5.60;;
28772;SDS011;15925;51.222;5.678;2022-10-31T13:13:13;18.10;;;6.35;;
28772;SDS011;15925;51.222;5.678;2022-10-31T13:15:55;17.08;;;5.03;;
28772;SDS011;15925;51.222;5.678;2022-10-31T13:18:27;34.40;;;5.90;;
28772;SDS011;15925;51.222;5.678;2022-10-31T13:20:57;12.07;;;4.28;;
28772;SDS011;15925;51.222;5.678;2022-10-31T13:23:33;15.25;;;4.90;;
28772;SDS011;15925;51.222;5.678;2022-10-31T13:29:18;30.98;;;5.55;;
28772;SDS011;15925;51.222;5.678;2022-10-31T13:31:50;24.10;;;5.07;;
28772;SDS011;15925;51.222;5.678;2022-10-31T13:34:18;16.33;;;4.63;;
28772;SDS011;15925;51.222;5.678;2022-10-31T13:37:00;19.73;;;5.20;;
28772;SDS011;15925;51.222;5.678;2022-10-31T13:43:12;11.63;;;4.38;;
28772;SDS011;15925;51.222;5.678;2022-10-31T13:45:46;10.00;;;4.13;;
28772;SDS011;15925;51.222;5.678;2022-10-31T13:50:59;14.32;;;4.68;;
28772;SDS011;15925;51.222;5.678;2022-10-31T13:58:42;33.72;;;5.38;;
28772;SDS011;15925;51.222;5.678;2022-10-31T14:01:22;12.50;;;4.88;;
28772;SDS011;15925;51.222;5.678;2022-10-31T14:06:39;17.65;;;4.15;;
28772;SDS011;15925;51.222;5.678;2022-10-31T14:09:16;16.52;;;5.13;;
28772;SDS011;15925;51.222;5.678;2022-10-31T14:11:46;16.30;;;5.88;;
28772;SDS011;15925;51.222;5.678;2022-10-31T14:14:13;18.05;;;5.25;;
28772;SDS011;15925;51.222;5.678;2022-10-31T14:16:40;19.25;;;4.60;;
28772;SDS011;15925;51.222;5.678;2022-10-31T14:19:13;10.00;;;4.50;;
28772;SDS011;15925;51.222;5.678;2022-10-31T14:21:42;18.75;;;4.88;;
28772;SDS011;15925;51.222;5.678;2022-10-31T14:24:13;15.30;;;5.28;;
28772;SDS011;15925;51.222;5.678;2022-10-31T14:26:59;19.83;;;4.90;;
28772;SDS011;15925;51.222;5.678;2022-10-31T14:29:28;14.48;;;4.97;;
28772;SDS011;15925;51.222;5.678;2022-10-31T14:34:42;6.80;;;3.70;;
28772;SDS011;15925;51.222;5.678;2022-10-31T14:37:14;17.13;;;5.03;;
28772;SDS011;15925;51.222;5.678;2022-10-31T14:39:47;7.75;;;4.22;;
28772;SDS011;15925;51.222;5.678;2022-10-31T14:48:08;12.60;;;4.85;;
28772;SDS011;15925;51.222;5.678;2022-10-31T14:50:55;25.92;;;4.20;;
28772;SDS011;15925;51.222;5.678;2022-10-31T14:53:24;18.27;;;3.85;;
28772;SDS011;15925;51.222;5.678;2022-10-31T14:56:11;9.50;;;3.55;;
28772;SDS011;15925;51.222;5.678;2022-10-31T15:01:15;6.75;;;2.88;;
28772;SDS011;15925;51.222;5.678;2022-10-31T15:03:49;10.23;;;3.20;;
28772;SDS011;15925;51.222;5.678;2022-10-31T15:08:46;7.35;;;2.63;;
28772;SDS011;15925;51.222;5.678;2022-10-31T15:13:42;26.58;;;3.47;;
28772;SDS011;15925;51.222;5.678;2022-10-31T15:16:09;7.93;;;2.67;;
28772;SDS011;15925;51.222;5.678;2022-10-31T15:18:36;6.57;;;2.85;;
28772;SDS011;15925;51.222;5.678;2022-10-31T15:21:11;21.40;;;3.10;;
28772;SDS011;15925;51.222;5.678;2022-10-31T15:23:41;16.55;;;2.80;;
28772;SDS011;15925;51.222;5.678;2022-10-31T15:28:40;18.20;;;2.72;;
28772;SDS011;15925;51.222;5.678;2022-10-31T15:31:12;13.97;;;2.80;;
28772;SDS011;15925;51.222;5.678;2022-10-31T15:33:41;9.52;;;2.28;;
28772;SDS011;15925;51.222;5.678;2022-10-31T15:36:17;8.85;;;2.53;;
28772;SDS011;15925;51.222;5.678;2022-10-31T15:38:48;14.93;;;2.85;;
28772;SDS011;15925;51.222;5.678;2022-10-31T15:41:27;4.28;;;1.80;;
28772;SDS011;15925;51.222;5.678;2022-10-31T15:43:59;5.28;;;1.90;;
28772;SDS011;15925;51.222;5.678;2022-10-31T15:46:38;8.40;;;2.83;;
28772;SDS011;15925;51.222;5.678;2022-10-31T15:49:09;8.73;;;2.38;;
28772;SDS011;15925;51.222;5.678;2022-10-31T15:51:48;6.97;;;2.88;;
28772;SDS011;15925;51.222;5.678;2022-10-31T15:54:14;13.10;;;3.08;;
28772;SDS011;15925;51.222;5.678;2022-10-31T15:56:40;18.67;;;3.00;;
28772;SDS011;15925;51.222;5.678;2022-10-31T15:59:16;7.63;;;2.40;;
28772;SDS011;15925;51.222;5.678;2022-10-31T16:01:55;16.65;;;3.22;;
28772;SDS011;15925;51.222;5.678;2022-10-31T16:04:25;9.95;;;3.13;;
28772;SDS011;15925;51.222;5.678;2022-10-31T16:07:02;19.52;;;2.63;;
28772;SDS011;15925;51.222;5.678;2022-10-31T16:09:37;14.52;;;2.75;;
28772;SDS011;15925;51.222;5.678;2022-10-31T16:12:13;7.95;;;3.20;;
28772;SDS011;15925;51.222;5.678;2022-10-31T16:14:39;12.82;;;3.13;;
28772;SDS011;15925;51.222;5.678;2022-10-31T16:19:36;10.20;;;2.40;;
28772;SDS011;15925;51.222;5.678;2022-10-31T16:22:13;12.77;;;3.20;;
28772;SDS011;15925;51.222;5.678;2022-10-31T16:24:46;7.53;;;2.63;;
28772;SDS011;15925;51.222;5.678;2022-10-31T16:27:19;10.55;;;2.67;;
28772;SDS011;15925;51.222;5.678;2022-10-31T16:29:50;17.63;;;2.85;;
28772;SDS011;15925;51.222;5.678;2022-10-31T16:37:37;6.03;;;2.75;;
28772;SDS011;15925;51.222;5.678;2022-10-31T16:40:03;21.55;;;2.55;;
28772;SDS011;15925;51.222;5.678;2022-10-31T16:42:29;6.32;;;2.67;;
28772;SDS011;15925;51.222;5.678;2022-10-31T16:44:55;11.77;;;3.17;;
28772;SDS011;15925;51.222;5.678;2022-10-31T16:47:21;8.07;;;3.25;;
28772;SDS011;15925;51.222;5.678;2022-10-31T16:49:48;4.07;;;2.60;;
28772;SDS011;15925;51.222;5.678;2022-10-31T16:52:15;6.95;;;2.83;;
28772;SDS011;15925;51.222;5.678;2022-10-31T16:54:42;7.88;;;2.58;;
28772;SDS011;15925;51.222;5.678;2022-10-31T16:57:10;8.20;;;2.92;;
28772;SDS011;15925;51.222;5.678;2022-10-31T16:59:42;8.02;;;2.70;;
28772;SDS011;15925;51.222;5.678;2022-10-31T17:02:13;12.23;;;2.75;;
28772;SDS011;15925;51.222;5.678;2022-10-31T17:04:41;14.07;;;2.88;;
28772;SDS011;15925;51.222;5.678;2022-10-31T17:07:07;4.40;;;2.08;;
28772;SDS011;15925;51.222;5.678;2022-10-31T17:09:32;8.70;;;2.40;;
28772;SDS011;15925;51.222;5.678;2022-10-31T17:11:58;16.27;;;2.47;;
28772;SDS011;15925;51.222;5.678;2022-10-31T17:14:24;8.15;;;2.05;;
28772;SDS011;15925;51.222;5.678;2022-10-31T17:16:50;7.45;;;2.40;;
28772;SDS011;15925;51.222;5.678;2022-10-31T17:19:16;6.57;;;2.77;;
28772;SDS011;15925;51.222;5.678;2022-10-31T17:21:42;12.47;;;2.17;;
28772;SDS011;15925;51.222;5.678;2022-10-31T17:24:09;4.97;;;1.90;;
28772;SDS011;15925;51.222;5.678;2022-10-31T17:26:37;12.70;;;2.25;;
28772;SDS011;15925;51.222;5.678;2022-10-31T17:29:03;5.65;;;1.98;;
28772;SDS011;15925;51.222;5.678;2022-10-31T17:31:30;6.70;;;2.60;;
28772;SDS011;15925;51.222;5.678;2022-10-31T17:34:00;3.38;;;2.00;;
28772;SDS011;15925;51.222;5.678;2022-10-31T17:36:28;9.10;;;3.03;;
28772;SDS011;15925;51.222;5.678;2022-10-31T17:38:53;7.03;;;2.70;;
28772;SDS011;15925;51.222;5.678;2022-10-31T17:41:19;5.37;;;2.20;;
28772;SDS011;15925;51.222;5.678;2022-10-31T17:43:45;12.77;;;3.00;;